<?xml version="1.0" encoding="UTF-8"?>
<gpx creator="Wikiloc - https://www.wikiloc.com" version="1.1" xmlns="http://www.topografix.com/GPX/1/1" xmlns:xsi="http://www.w3.org/2001/XMLSchema-instance" xsi:schemaLocation="http://www.topografix.com/GPX/1/1 http://www.topografix.com/GPX/1/1/gpx.xsd">
  <metadata>
    <name>Wikiloc - Şile Saklıköy/Darlık</name>
    <link href="https://www.wikiloc.com/mountain-biking-trails/sile-saklikoy-darlik-37338617">
      <text>Şile Saklıköy/Darlık on Wikiloc</text>
    </link>
    <time>2019-06-08T11:03:53Z</time>
  </metadata>
  <trk>
    <name>Şile Saklıköy/Darlık</name>
    <cmt></cmt>
    <desc></desc>
    <trkseg>
      <trkpt lat="41.089786" lon="29.601013">
        <ele>83.234</ele>
        <time>2019-06-08T08:56:03Z</time>
      </trkpt>
      <trkpt lat="41.090498" lon="29.601285">
        <ele>82.655</ele>
        <time>2019-06-08T08:56:12Z</time>
      </trkpt>
      <trkpt lat="41.090978" lon="29.601186">
        <ele>82.110</ele>
        <time>2019-06-08T08:56:59Z</time>
      </trkpt>
      <trkpt lat="41.092118" lon="29.601381">
        <ele>86.408</ele>
        <time>2019-06-08T08:57:54Z</time>
      </trkpt>
      <trkpt lat="41.092496" lon="29.601798">
        <ele>88.046</ele>
        <time>2019-06-08T08:58:10Z</time>
      </trkpt>
      <trkpt lat="41.092480" lon="29.602682">
        <ele>88.950</ele>
        <time>2019-06-08T08:58:30Z</time>
      </trkpt>
      <trkpt lat="41.092880" lon="29.602992">
        <ele>86.736</ele>
        <time>2019-06-08T08:58:40Z</time>
      </trkpt>
      <trkpt lat="41.093556" lon="29.604644">
        <ele>91.376</ele>
        <time>2019-06-08T08:59:20Z</time>
      </trkpt>
      <trkpt lat="41.093466" lon="29.605126">
        <ele>88.741</ele>
        <time>2019-06-08T08:59:46Z</time>
      </trkpt>
      <trkpt lat="41.093566" lon="29.605256">
        <ele>86.679</ele>
        <time>2019-06-08T09:00:19Z</time>
      </trkpt>
      <trkpt lat="41.093404" lon="29.605417">
        <ele>90.354</ele>
        <time>2019-06-08T09:00:34Z</time>
      </trkpt>
      <trkpt lat="41.093245" lon="29.605266">
        <ele>89.030</ele>
        <time>2019-06-08T09:00:56Z</time>
      </trkpt>
      <trkpt lat="41.093472" lon="29.605024">
        <ele>89.612</ele>
        <time>2019-06-08T09:02:44Z</time>
      </trkpt>
      <trkpt lat="41.093682" lon="29.605308">
        <ele>90.432</ele>
        <time>2019-06-08T09:02:54Z</time>
      </trkpt>
      <trkpt lat="41.094110" lon="29.607010">
        <ele>91.405</ele>
        <time>2019-06-08T09:03:28Z</time>
      </trkpt>
      <trkpt lat="41.093981" lon="29.607479">
        <ele>93.208</ele>
        <time>2019-06-08T09:03:44Z</time>
      </trkpt>
      <trkpt lat="41.094116" lon="29.608775">
        <ele>98.974</ele>
        <time>2019-06-08T09:04:21Z</time>
      </trkpt>
      <trkpt lat="41.093794" lon="29.609795">
        <ele>105.918</ele>
        <time>2019-06-08T09:04:58Z</time>
      </trkpt>
      <trkpt lat="41.093814" lon="29.610568">
        <ele>106.964</ele>
        <time>2019-06-08T09:05:19Z</time>
      </trkpt>
      <trkpt lat="41.093563" lon="29.611507">
        <ele>110.694</ele>
        <time>2019-06-08T09:05:46Z</time>
      </trkpt>
      <trkpt lat="41.093712" lon="29.611877">
        <ele>110.369</ele>
        <time>2019-06-08T09:05:56Z</time>
      </trkpt>
      <trkpt lat="41.094351" lon="29.609499">
        <ele>96.517</ele>
        <time>2019-06-08T09:06:32Z</time>
      </trkpt>
      <trkpt lat="41.094512" lon="29.607619">
        <ele>90.352</ele>
        <time>2019-06-08T09:07:02Z</time>
      </trkpt>
      <trkpt lat="41.094326" lon="29.606438">
        <ele>85.458</ele>
        <time>2019-06-08T09:07:56Z</time>
      </trkpt>
      <trkpt lat="41.094546" lon="29.607074">
        <ele>90.985</ele>
        <time>2019-06-08T09:09:15Z</time>
      </trkpt>
      <trkpt lat="41.094540" lon="29.606473">
        <ele>95.689</ele>
        <time>2019-06-08T09:09:47Z</time>
      </trkpt>
      <trkpt lat="41.094862" lon="29.605828">
        <ele>99.117</ele>
        <time>2019-06-08T09:10:14Z</time>
      </trkpt>
      <trkpt lat="41.096309" lon="29.605618">
        <ele>95.008</ele>
        <time>2019-06-08T09:11:11Z</time>
      </trkpt>
      <trkpt lat="41.095233" lon="29.605154">
        <ele>87.221</ele>
        <time>2019-06-08T09:12:16Z</time>
      </trkpt>
      <trkpt lat="41.094745" lon="29.604371">
        <ele>88.535</ele>
        <time>2019-06-08T09:12:35Z</time>
      </trkpt>
      <trkpt lat="41.094387" lon="29.604129">
        <ele>88.181</ele>
        <time>2019-06-08T09:12:44Z</time>
      </trkpt>
      <trkpt lat="41.094746" lon="29.603236">
        <ele>88.081</ele>
        <time>2019-06-08T09:13:01Z</time>
      </trkpt>
      <trkpt lat="41.094094" lon="29.602670">
        <ele>91.366</ele>
        <time>2019-06-08T09:13:23Z</time>
      </trkpt>
      <trkpt lat="41.093935" lon="29.601561">
        <ele>92.814</ele>
        <time>2019-06-08T09:13:44Z</time>
      </trkpt>
      <trkpt lat="41.093059" lon="29.599982">
        <ele>96.129</ele>
        <time>2019-06-08T09:14:28Z</time>
      </trkpt>
      <trkpt lat="41.093116" lon="29.599710">
        <ele>95.515</ele>
        <time>2019-06-08T09:14:33Z</time>
      </trkpt>
      <trkpt lat="41.093731" lon="29.599589">
        <ele>96.513</ele>
        <time>2019-06-08T09:14:48Z</time>
      </trkpt>
      <trkpt lat="41.093734" lon="29.598488">
        <ele>96.943</ele>
        <time>2019-06-08T09:15:06Z</time>
      </trkpt>
      <trkpt lat="41.094262" lon="29.598297">
        <ele>97.907</ele>
        <time>2019-06-08T09:15:19Z</time>
      </trkpt>
      <trkpt lat="41.095424" lon="29.598615">
        <ele>95.608</ele>
        <time>2019-06-08T09:15:43Z</time>
      </trkpt>
      <trkpt lat="41.095719" lon="29.598177">
        <ele>96.594</ele>
        <time>2019-06-08T09:15:53Z</time>
      </trkpt>
      <trkpt lat="41.096220" lon="29.598084">
        <ele>99.178</ele>
        <time>2019-06-08T09:16:05Z</time>
      </trkpt>
      <trkpt lat="41.096522" lon="29.598336">
        <ele>99.944</ele>
        <time>2019-06-08T09:16:13Z</time>
      </trkpt>
      <trkpt lat="41.096822" lon="29.598078">
        <ele>100.664</ele>
        <time>2019-06-08T09:16:23Z</time>
      </trkpt>
      <trkpt lat="41.097777" lon="29.598382">
        <ele>97.079</ele>
        <time>2019-06-08T09:16:43Z</time>
      </trkpt>
      <trkpt lat="41.098207" lon="29.598219">
        <ele>100.427</ele>
        <time>2019-06-08T09:16:59Z</time>
      </trkpt>
      <trkpt lat="41.098934" lon="29.597619">
        <ele>108.522</ele>
        <time>2019-06-08T09:18:37Z</time>
      </trkpt>
      <trkpt lat="41.100029" lon="29.598241">
        <ele>114.238</ele>
        <time>2019-06-08T09:20:33Z</time>
      </trkpt>
      <trkpt lat="41.099612" lon="29.598516">
        <ele>121.492</ele>
        <time>2019-06-08T09:21:32Z</time>
      </trkpt>
      <trkpt lat="41.099138" lon="29.598336">
        <ele>127.273</ele>
        <time>2019-06-08T09:22:13Z</time>
      </trkpt>
      <trkpt lat="41.098736" lon="29.598674">
        <ele>133.520</ele>
        <time>2019-06-08T09:23:01Z</time>
      </trkpt>
      <trkpt lat="41.098520" lon="29.599121">
        <ele>139.808</ele>
        <time>2019-06-08T09:23:35Z</time>
      </trkpt>
      <trkpt lat="41.098670" lon="29.599927">
        <ele>149.822</ele>
        <time>2019-06-08T09:24:40Z</time>
      </trkpt>
      <trkpt lat="41.097755" lon="29.599835">
        <ele>159.726</ele>
        <time>2019-06-08T09:25:58Z</time>
      </trkpt>
      <trkpt lat="41.097660" lon="29.600009">
        <ele>158.972</ele>
        <time>2019-06-08T09:28:48Z</time>
      </trkpt>
      <trkpt lat="41.097856" lon="29.599901">
        <ele>160.282</ele>
        <time>2019-06-08T09:30:04Z</time>
      </trkpt>
      <trkpt lat="41.097678" lon="29.599784">
        <ele>159.887</ele>
        <time>2019-06-08T09:31:17Z</time>
      </trkpt>
      <trkpt lat="41.097670" lon="29.599660">
        <ele>160.045</ele>
        <time>2019-06-08T09:31:43Z</time>
      </trkpt>
      <trkpt lat="41.097795" lon="29.599663">
        <ele>161.120</ele>
        <time>2019-06-08T09:32:11Z</time>
      </trkpt>
      <trkpt lat="41.099631" lon="29.601302">
        <ele>179.616</ele>
        <time>2019-06-08T09:33:47Z</time>
      </trkpt>
      <trkpt lat="41.100913" lon="29.601456">
        <ele>178.234</ele>
        <time>2019-06-08T09:34:23Z</time>
      </trkpt>
      <trkpt lat="41.102612" lon="29.601265">
        <ele>184.455</ele>
        <time>2019-06-08T09:35:10Z</time>
      </trkpt>
      <trkpt lat="41.103169" lon="29.600499">
        <ele>192.910</ele>
        <time>2019-06-08T09:36:03Z</time>
      </trkpt>
      <trkpt lat="41.103107" lon="29.599477">
        <ele>190.908</ele>
        <time>2019-06-08T09:36:46Z</time>
      </trkpt>
      <trkpt lat="41.103285" lon="29.598062">
        <ele>194.726</ele>
        <time>2019-06-08T09:37:14Z</time>
      </trkpt>
      <trkpt lat="41.102675" lon="29.596744">
        <ele>190.290</ele>
        <time>2019-06-08T09:37:36Z</time>
      </trkpt>
      <trkpt lat="41.102610" lon="29.595195">
        <ele>193.386</ele>
        <time>2019-06-08T09:38:02Z</time>
      </trkpt>
      <trkpt lat="41.102153" lon="29.594534">
        <ele>194.026</ele>
        <time>2019-06-08T09:38:19Z</time>
      </trkpt>
      <trkpt lat="41.102509" lon="29.593495">
        <ele>187.451</ele>
        <time>2019-06-08T09:38:34Z</time>
      </trkpt>
      <trkpt lat="41.102376" lon="29.592746">
        <ele>184.939</ele>
        <time>2019-06-08T09:38:44Z</time>
      </trkpt>
      <trkpt lat="41.102757" lon="29.591184">
        <ele>188.424</ele>
        <time>2019-06-08T09:39:12Z</time>
      </trkpt>
      <trkpt lat="41.102499" lon="29.590316">
        <ele>189.320</ele>
        <time>2019-06-08T09:39:27Z</time>
      </trkpt>
      <trkpt lat="41.101692" lon="29.589542">
        <ele>194.157</ele>
        <time>2019-06-08T09:39:55Z</time>
      </trkpt>
      <trkpt lat="41.101557" lon="29.588683">
        <ele>197.000</ele>
        <time>2019-06-08T09:41:59Z</time>
      </trkpt>
      <trkpt lat="41.101638" lon="29.588283">
        <ele>195.620</ele>
        <time>2019-06-08T09:42:12Z</time>
      </trkpt>
      <trkpt lat="41.100570" lon="29.588910">
        <ele>193.408</ele>
        <time>2019-06-08T09:42:54Z</time>
      </trkpt>
      <trkpt lat="41.099595" lon="29.588928">
        <ele>187.598</ele>
        <time>2019-06-08T09:43:14Z</time>
      </trkpt>
      <trkpt lat="41.098985" lon="29.589230">
        <ele>183.342</ele>
        <time>2019-06-08T09:43:35Z</time>
      </trkpt>
      <trkpt lat="41.097665" lon="29.589293">
        <ele>175.758</ele>
        <time>2019-06-08T09:44:06Z</time>
      </trkpt>
      <trkpt lat="41.096771" lon="29.589552">
        <ele>164.998</ele>
        <time>2019-06-08T09:46:38Z</time>
      </trkpt>
      <trkpt lat="41.096161" lon="29.589321">
        <ele>161.583</ele>
        <time>2019-06-08T09:48:00Z</time>
      </trkpt>
      <trkpt lat="41.095422" lon="29.589377">
        <ele>159.831</ele>
        <time>2019-06-08T09:48:47Z</time>
      </trkpt>
      <trkpt lat="41.094343" lon="29.589973">
        <ele>145.136</ele>
        <time>2019-06-08T09:51:04Z</time>
      </trkpt>
      <trkpt lat="41.093789" lon="29.589165">
        <ele>128.312</ele>
        <time>2019-06-08T09:54:51Z</time>
      </trkpt>
      <trkpt lat="41.094337" lon="29.588568">
        <ele>127.541</ele>
        <time>2019-06-08T09:55:22Z</time>
      </trkpt>
      <trkpt lat="41.095991" lon="29.587508">
        <ele>127.781</ele>
        <time>2019-06-08T09:56:07Z</time>
      </trkpt>
      <trkpt lat="41.096689" lon="29.587689">
        <ele>124.609</ele>
        <time>2019-06-08T09:56:25Z</time>
      </trkpt>
      <trkpt lat="41.097013" lon="29.587965">
        <ele>123.808</ele>
        <time>2019-06-08T09:56:33Z</time>
      </trkpt>
      <trkpt lat="41.097212" lon="29.587697">
        <ele>122.057</ele>
        <time>2019-06-08T09:56:41Z</time>
      </trkpt>
      <trkpt lat="41.097372" lon="29.587115">
        <ele>115.561</ele>
        <time>2019-06-08T09:56:54Z</time>
      </trkpt>
      <trkpt lat="41.096211" lon="29.585273">
        <ele>124.557</ele>
        <time>2019-06-08T09:57:57Z</time>
      </trkpt>
      <trkpt lat="41.096997" lon="29.584748">
        <ele>119.827</ele>
        <time>2019-06-08T09:58:26Z</time>
      </trkpt>
      <trkpt lat="41.097686" lon="29.584672">
        <ele>121.382</ele>
        <time>2019-06-08T09:58:46Z</time>
      </trkpt>
      <trkpt lat="41.097724" lon="29.584167">
        <ele>120.210</ele>
        <time>2019-06-08T09:58:57Z</time>
      </trkpt>
      <trkpt lat="41.098068" lon="29.584223">
        <ele>120.895</ele>
        <time>2019-06-08T09:59:07Z</time>
      </trkpt>
      <trkpt lat="41.098150" lon="29.583974">
        <ele>121.761</ele>
        <time>2019-06-08T09:59:13Z</time>
      </trkpt>
      <trkpt lat="41.097517" lon="29.583070">
        <ele>121.139</ele>
        <time>2019-06-08T09:59:39Z</time>
      </trkpt>
      <trkpt lat="41.097309" lon="29.583046">
        <ele>120.901</ele>
        <time>2019-06-08T09:59:44Z</time>
      </trkpt>
      <trkpt lat="41.096721" lon="29.583371">
        <ele>119.321</ele>
        <time>2019-06-08T09:59:56Z</time>
      </trkpt>
      <trkpt lat="41.096395" lon="29.582650">
        <ele>119.108</ele>
        <time>2019-06-08T10:00:10Z</time>
      </trkpt>
      <trkpt lat="41.097368" lon="29.582582">
        <ele>123.836</ele>
        <time>2019-06-08T10:00:39Z</time>
      </trkpt>
      <trkpt lat="41.097561" lon="29.582247">
        <ele>124.770</ele>
        <time>2019-06-08T10:00:48Z</time>
      </trkpt>
      <trkpt lat="41.097198" lon="29.581759">
        <ele>126.066</ele>
        <time>2019-06-08T10:01:02Z</time>
      </trkpt>
      <trkpt lat="41.097275" lon="29.581497">
        <ele>126.466</ele>
        <time>2019-06-08T10:01:08Z</time>
      </trkpt>
      <trkpt lat="41.098023" lon="29.581305">
        <ele>129.481</ele>
        <time>2019-06-08T10:01:33Z</time>
      </trkpt>
      <trkpt lat="41.098687" lon="29.581493">
        <ele>131.229</ele>
        <time>2019-06-08T10:01:53Z</time>
      </trkpt>
      <trkpt lat="41.099107" lon="29.582132">
        <ele>133.064</ele>
        <time>2019-06-08T10:02:09Z</time>
      </trkpt>
      <trkpt lat="41.099561" lon="29.582468">
        <ele>131.630</ele>
        <time>2019-06-08T10:02:30Z</time>
      </trkpt>
      <trkpt lat="41.099871" lon="29.582162">
        <ele>133.463</ele>
        <time>2019-06-08T10:03:03Z</time>
      </trkpt>
      <trkpt lat="41.099946" lon="29.581784">
        <ele>134.644</ele>
        <time>2019-06-08T10:03:15Z</time>
      </trkpt>
      <trkpt lat="41.100418" lon="29.581970">
        <ele>138.618</ele>
        <time>2019-06-08T10:03:41Z</time>
      </trkpt>
      <trkpt lat="41.100561" lon="29.581602">
        <ele>140.608</ele>
        <time>2019-06-08T10:03:57Z</time>
      </trkpt>
      <trkpt lat="41.100367" lon="29.580840">
        <ele>147.569</ele>
        <time>2019-06-08T10:05:10Z</time>
      </trkpt>
      <trkpt lat="41.100472" lon="29.580699">
        <ele>150.713</ele>
        <time>2019-06-08T10:05:44Z</time>
      </trkpt>
      <trkpt lat="41.100461" lon="29.580858">
        <ele>150.239</ele>
        <time>2019-06-08T10:09:32Z</time>
      </trkpt>
      <trkpt lat="41.100268" lon="29.580841">
        <ele>146.599</ele>
        <time>2019-06-08T10:09:41Z</time>
      </trkpt>
      <trkpt lat="41.099951" lon="29.580164">
        <ele>138.734</ele>
        <time>2019-06-08T10:10:03Z</time>
      </trkpt>
      <trkpt lat="41.098993" lon="29.579274">
        <ele>125.872</ele>
        <time>2019-06-08T10:11:34Z</time>
      </trkpt>
      <trkpt lat="41.099424" lon="29.579262">
        <ele>122.367</ele>
        <time>2019-06-08T10:11:57Z</time>
      </trkpt>
      <trkpt lat="41.100571" lon="29.579658">
        <ele>111.323</ele>
        <time>2019-06-08T10:12:28Z</time>
      </trkpt>
      <trkpt lat="41.100931" lon="29.578933">
        <ele>114.537</ele>
        <time>2019-06-08T10:12:50Z</time>
      </trkpt>
      <trkpt lat="41.101802" lon="29.579008">
        <ele>106.249</ele>
        <time>2019-06-08T10:13:14Z</time>
      </trkpt>
      <trkpt lat="41.101728" lon="29.578368">
        <ele>111.213</ele>
        <time>2019-06-08T10:13:32Z</time>
      </trkpt>
      <trkpt lat="41.101837" lon="29.578140">
        <ele>112.508</ele>
        <time>2019-06-08T10:13:44Z</time>
      </trkpt>
      <trkpt lat="41.102539" lon="29.577757">
        <ele>116.056</ele>
        <time>2019-06-08T10:14:14Z</time>
      </trkpt>
      <trkpt lat="41.103400" lon="29.577901">
        <ele>118.390</ele>
        <time>2019-06-08T10:14:42Z</time>
      </trkpt>
      <trkpt lat="41.103936" lon="29.577540">
        <ele>120.026</ele>
        <time>2019-06-08T10:15:03Z</time>
      </trkpt>
      <trkpt lat="41.104192" lon="29.577119">
        <ele>121.196</ele>
        <time>2019-06-08T10:15:18Z</time>
      </trkpt>
      <trkpt lat="41.104237" lon="29.576601">
        <ele>124.881</ele>
        <time>2019-06-08T10:15:36Z</time>
      </trkpt>
      <trkpt lat="41.105153" lon="29.576913">
        <ele>121.229</ele>
        <time>2019-06-08T10:16:31Z</time>
      </trkpt>
      <trkpt lat="41.105567" lon="29.577232">
        <ele>116.134</ele>
        <time>2019-06-08T10:16:42Z</time>
      </trkpt>
      <trkpt lat="41.105763" lon="29.577687">
        <ele>112.370</ele>
        <time>2019-06-08T10:16:52Z</time>
      </trkpt>
      <trkpt lat="41.105588" lon="29.578517">
        <ele>102.564</ele>
        <time>2019-06-08T10:17:15Z</time>
      </trkpt>
      <trkpt lat="41.105758" lon="29.578703">
        <ele>99.906</ele>
        <time>2019-06-08T10:17:29Z</time>
      </trkpt>
      <trkpt lat="41.106717" lon="29.577639">
        <ele>102.416</ele>
        <time>2019-06-08T10:18:41Z</time>
      </trkpt>
      <trkpt lat="41.106874" lon="29.576976">
        <ele>104.908</ele>
        <time>2019-06-08T10:19:05Z</time>
      </trkpt>
      <trkpt lat="41.107374" lon="29.576143">
        <ele>97.389</ele>
        <time>2019-06-08T10:20:00Z</time>
      </trkpt>
      <trkpt lat="41.107490" lon="29.575677">
        <ele>93.493</ele>
        <time>2019-06-08T10:20:12Z</time>
      </trkpt>
      <trkpt lat="41.107889" lon="29.575256">
        <ele>88.229</ele>
        <time>2019-06-08T10:20:40Z</time>
      </trkpt>
      <trkpt lat="41.108061" lon="29.575239">
        <ele>86.469</ele>
        <time>2019-06-08T10:21:20Z</time>
      </trkpt>
      <trkpt lat="41.107820" lon="29.575333">
        <ele>89.044</ele>
        <time>2019-06-08T10:22:06Z</time>
      </trkpt>
      <trkpt lat="41.107790" lon="29.575161">
        <ele>89.232</ele>
        <time>2019-06-08T10:23:31Z</time>
      </trkpt>
      <trkpt lat="41.107921" lon="29.575238">
        <ele>88.697</ele>
        <time>2019-06-08T10:25:17Z</time>
      </trkpt>
      <trkpt lat="41.107515" lon="29.575631">
        <ele>92.033</ele>
        <time>2019-06-08T10:26:03Z</time>
      </trkpt>
      <trkpt lat="41.107396" lon="29.576187">
        <ele>97.295</ele>
        <time>2019-06-08T10:26:44Z</time>
      </trkpt>
      <trkpt lat="41.107097" lon="29.576633">
        <ele>102.849</ele>
        <time>2019-06-08T10:27:28Z</time>
      </trkpt>
      <trkpt lat="41.107931" lon="29.577067">
        <ele>114.023</ele>
        <time>2019-06-08T10:29:09Z</time>
      </trkpt>
      <trkpt lat="41.108276" lon="29.577572">
        <ele>110.408</ele>
        <time>2019-06-08T10:29:46Z</time>
      </trkpt>
      <trkpt lat="41.108532" lon="29.577643">
        <ele>111.072</ele>
        <time>2019-06-08T10:29:54Z</time>
      </trkpt>
      <trkpt lat="41.109162" lon="29.577366">
        <ele>121.176</ele>
        <time>2019-06-08T10:30:29Z</time>
      </trkpt>
      <trkpt lat="41.109338" lon="29.577545">
        <ele>119.042</ele>
        <time>2019-06-08T10:31:26Z</time>
      </trkpt>
      <trkpt lat="41.109654" lon="29.577368">
        <ele>117.542</ele>
        <time>2019-06-08T10:31:34Z</time>
      </trkpt>
      <trkpt lat="41.110557" lon="29.578305">
        <ele>105.587</ele>
        <time>2019-06-08T10:32:04Z</time>
      </trkpt>
      <trkpt lat="41.110952" lon="29.577765">
        <ele>107.625</ele>
        <time>2019-06-08T10:32:23Z</time>
      </trkpt>
      <trkpt lat="41.111770" lon="29.578141">
        <ele>108.040</ele>
        <time>2019-06-08T10:32:50Z</time>
      </trkpt>
      <trkpt lat="41.111742" lon="29.576449">
        <ele>109.356</ele>
        <time>2019-06-08T10:33:25Z</time>
      </trkpt>
      <trkpt lat="41.112516" lon="29.575817">
        <ele>99.887</ele>
        <time>2019-06-08T10:33:51Z</time>
      </trkpt>
      <trkpt lat="41.112670" lon="29.575035">
        <ele>95.542</ele>
        <time>2019-06-08T10:34:07Z</time>
      </trkpt>
      <trkpt lat="41.113119" lon="29.575228">
        <ele>93.126</ele>
        <time>2019-06-08T10:34:24Z</time>
      </trkpt>
      <trkpt lat="41.113398" lon="29.575072">
        <ele>95.608</ele>
        <time>2019-06-08T10:34:32Z</time>
      </trkpt>
      <trkpt lat="41.113673" lon="29.573901">
        <ele>99.871</ele>
        <time>2019-06-08T10:35:03Z</time>
      </trkpt>
      <trkpt lat="41.114108" lon="29.573399">
        <ele>100.285</ele>
        <time>2019-06-08T10:35:23Z</time>
      </trkpt>
      <trkpt lat="41.114654" lon="29.573125">
        <ele>91.221</ele>
        <time>2019-06-08T10:35:35Z</time>
      </trkpt>
      <trkpt lat="41.115117" lon="29.572423">
        <ele>85.321</ele>
        <time>2019-06-08T10:35:44Z</time>
      </trkpt>
      <trkpt lat="41.116037" lon="29.571849">
        <ele>77.536</ele>
        <time>2019-06-08T10:35:56Z</time>
      </trkpt>
      <trkpt lat="41.116773" lon="29.572068">
        <ele>70.614</ele>
        <time>2019-06-08T10:36:09Z</time>
      </trkpt>
      <trkpt lat="41.117335" lon="29.571730">
        <ele>63.469</ele>
        <time>2019-06-08T10:36:29Z</time>
      </trkpt>
      <trkpt lat="41.117254" lon="29.572097">
        <ele>63.515</ele>
        <time>2019-06-08T10:37:14Z</time>
      </trkpt>
      <trkpt lat="41.117210" lon="29.571639">
        <ele>64.184</ele>
        <time>2019-06-08T10:37:49Z</time>
      </trkpt>
      <trkpt lat="41.117849" lon="29.570353">
        <ele>56.507</ele>
        <time>2019-06-08T10:38:08Z</time>
      </trkpt>
      <trkpt lat="41.118872" lon="29.570223">
        <ele>54.817</ele>
        <time>2019-06-08T10:38:26Z</time>
      </trkpt>
      <trkpt lat="41.119519" lon="29.569775">
        <ele>59.308</ele>
        <time>2019-06-08T10:38:44Z</time>
      </trkpt>
      <trkpt lat="41.120401" lon="29.568857">
        <ele>65.631</ele>
        <time>2019-06-08T10:39:25Z</time>
      </trkpt>
      <trkpt lat="41.120971" lon="29.569014">
        <ele>62.115</ele>
        <time>2019-06-08T10:39:35Z</time>
      </trkpt>
      <trkpt lat="41.121958" lon="29.569660">
        <ele>58.411</ele>
        <time>2019-06-08T10:40:02Z</time>
      </trkpt>
      <trkpt lat="41.122600" lon="29.569570">
        <ele>59.831</ele>
        <time>2019-06-08T10:40:26Z</time>
      </trkpt>
      <trkpt lat="41.122822" lon="29.569034">
        <ele>60.156</ele>
        <time>2019-06-08T10:40:35Z</time>
      </trkpt>
      <trkpt lat="41.122672" lon="29.567847">
        <ele>56.334</ele>
        <time>2019-06-08T10:40:54Z</time>
      </trkpt>
      <trkpt lat="41.123022" lon="29.567790">
        <ele>54.539</ele>
        <time>2019-06-08T10:41:00Z</time>
      </trkpt>
      <trkpt lat="41.123627" lon="29.567948">
        <ele>53.335</ele>
        <time>2019-06-08T10:41:14Z</time>
      </trkpt>
      <trkpt lat="41.123913" lon="29.567845">
        <ele>52.071</ele>
        <time>2019-06-08T10:41:20Z</time>
      </trkpt>
      <trkpt lat="41.124862" lon="29.569278">
        <ele>48.641</ele>
        <time>2019-06-08T10:41:50Z</time>
      </trkpt>
      <trkpt lat="41.125316" lon="29.570623">
        <ele>51.315</ele>
        <time>2019-06-08T10:42:20Z</time>
      </trkpt>
      <trkpt lat="41.126720" lon="29.571413">
        <ele>49.508</ele>
        <time>2019-06-08T10:42:50Z</time>
      </trkpt>
      <trkpt lat="41.127195" lon="29.572310">
        <ele>50.870</ele>
        <time>2019-06-08T10:43:08Z</time>
      </trkpt>
      <trkpt lat="41.128522" lon="29.572520">
        <ele>51.784</ele>
        <time>2019-06-08T10:43:39Z</time>
      </trkpt>
      <trkpt lat="41.130096" lon="29.573065">
        <ele>49.580</ele>
        <time>2019-06-08T10:44:08Z</time>
      </trkpt>
      <trkpt lat="41.131030" lon="29.573098">
        <ele>49.550</ele>
        <time>2019-06-08T10:44:25Z</time>
      </trkpt>
      <trkpt lat="41.131770" lon="29.573313">
        <ele>50.075</ele>
        <time>2019-06-08T10:44:40Z</time>
      </trkpt>
      <trkpt lat="41.132608" lon="29.573295">
        <ele>50.853</ele>
        <time>2019-06-08T10:44:59Z</time>
      </trkpt>
      <trkpt lat="41.132971" lon="29.573531">
        <ele>51.088</ele>
        <time>2019-06-08T10:45:07Z</time>
      </trkpt>
      <trkpt lat="41.133609" lon="29.574653">
        <ele>50.914</ele>
        <time>2019-06-08T10:45:30Z</time>
      </trkpt>
      <trkpt lat="41.134261" lon="29.575193">
        <ele>50.215</ele>
        <time>2019-06-08T10:45:47Z</time>
      </trkpt>
      <trkpt lat="41.134508" lon="29.575990">
        <ele>49.565</ele>
        <time>2019-06-08T10:46:01Z</time>
      </trkpt>
      <trkpt lat="41.134580" lon="29.577301">
        <ele>49.811</ele>
        <time>2019-06-08T10:46:21Z</time>
      </trkpt>
      <trkpt lat="41.135259" lon="29.577997">
        <ele>49.508</ele>
        <time>2019-06-08T10:46:37Z</time>
      </trkpt>
      <trkpt lat="41.136237" lon="29.580085">
        <ele>49.394</ele>
        <time>2019-06-08T10:47:12Z</time>
      </trkpt>
      <trkpt lat="41.137076" lon="29.581169">
        <ele>49.288</ele>
        <time>2019-06-08T10:47:36Z</time>
      </trkpt>
      <trkpt lat="41.137992" lon="29.581384">
        <ele>49.294</ele>
        <time>2019-06-08T10:47:55Z</time>
      </trkpt>
      <trkpt lat="41.138518" lon="29.581305">
        <ele>48.764</ele>
        <time>2019-06-08T10:48:06Z</time>
      </trkpt>
      <trkpt lat="41.139210" lon="29.580976">
        <ele>48.089</ele>
        <time>2019-06-08T10:48:19Z</time>
      </trkpt>
      <trkpt lat="41.140821" lon="29.579736">
        <ele>46.017</ele>
        <time>2019-06-08T10:48:50Z</time>
      </trkpt>
      <trkpt lat="41.141678" lon="29.579308">
        <ele>46.812</ele>
        <time>2019-06-08T10:49:08Z</time>
      </trkpt>
      <trkpt lat="41.142066" lon="29.579322">
        <ele>47.488</ele>
        <time>2019-06-08T10:49:17Z</time>
      </trkpt>
      <trkpt lat="41.142775" lon="29.579924">
        <ele>49.532</ele>
        <time>2019-06-08T10:49:38Z</time>
      </trkpt>
      <trkpt lat="41.143170" lon="29.580395">
        <ele>49.492</ele>
        <time>2019-06-08T10:49:50Z</time>
      </trkpt>
      <trkpt lat="41.143870" lon="29.582050">
        <ele>47.111</ele>
        <time>2019-06-08T10:50:17Z</time>
      </trkpt>
      <trkpt lat="41.143838" lon="29.583040">
        <ele>46.708</ele>
        <time>2019-06-08T10:50:32Z</time>
      </trkpt>
      <trkpt lat="41.143324" lon="29.584597">
        <ele>48.946</ele>
        <time>2019-06-08T10:51:00Z</time>
      </trkpt>
      <trkpt lat="41.142804" lon="29.585235">
        <ele>49.760</ele>
        <time>2019-06-08T10:51:16Z</time>
      </trkpt>
      <trkpt lat="41.143618" lon="29.587110">
        <ele>47.676</ele>
        <time>2019-06-08T10:51:46Z</time>
      </trkpt>
      <trkpt lat="41.143855" lon="29.588130">
        <ele>49.616</ele>
        <time>2019-06-08T10:52:04Z</time>
      </trkpt>
      <trkpt lat="41.143699" lon="29.589095">
        <ele>49.181</ele>
        <time>2019-06-08T10:52:20Z</time>
      </trkpt>
      <trkpt lat="41.143436" lon="29.589534">
        <ele>47.519</ele>
        <time>2019-06-08T10:52:26Z</time>
      </trkpt>
      <trkpt lat="41.142384" lon="29.590205">
        <ele>47.234</ele>
        <time>2019-06-08T10:52:46Z</time>
      </trkpt>
      <trkpt lat="41.140448" lon="29.590759">
        <ele>47.870</ele>
        <time>2019-06-08T10:53:22Z</time>
      </trkpt>
      <trkpt lat="41.140007" lon="29.590672">
        <ele>48.859</ele>
        <time>2019-06-08T10:53:30Z</time>
      </trkpt>
      <trkpt lat="41.139676" lon="29.590343">
        <ele>49.903</ele>
        <time>2019-06-08T10:53:39Z</time>
      </trkpt>
      <trkpt lat="41.138861" lon="29.590271">
        <ele>50.323</ele>
        <time>2019-06-08T10:53:56Z</time>
      </trkpt>
      <trkpt lat="41.138125" lon="29.589893">
        <ele>51.308</ele>
        <time>2019-06-08T10:54:13Z</time>
      </trkpt>
      <trkpt lat="41.136766" lon="29.589786">
        <ele>53.018</ele>
        <time>2019-06-08T10:54:41Z</time>
      </trkpt>
      <trkpt lat="41.135659" lon="29.589421">
        <ele>53.932</ele>
        <time>2019-06-08T10:55:06Z</time>
      </trkpt>
      <trkpt lat="41.134585" lon="29.589345">
        <ele>57.918</ele>
        <time>2019-06-08T10:55:37Z</time>
      </trkpt>
      <trkpt lat="41.133950" lon="29.589077">
        <ele>58.878</ele>
        <time>2019-06-08T10:55:57Z</time>
      </trkpt>
      <trkpt lat="41.133122" lon="29.588135">
        <ele>62.193</ele>
        <time>2019-06-08T10:56:32Z</time>
      </trkpt>
      <trkpt lat="41.132769" lon="29.587180">
        <ele>64.531</ele>
        <time>2019-06-08T10:56:56Z</time>
      </trkpt>
      <trkpt lat="41.131972" lon="29.586765">
        <ele>62.076</ele>
        <time>2019-06-08T10:57:17Z</time>
      </trkpt>
      <trkpt lat="41.131461" lon="29.586769">
        <ele>60.412</ele>
        <time>2019-06-08T10:57:27Z</time>
      </trkpt>
      <trkpt lat="41.130857" lon="29.587008">
        <ele>60.269</ele>
        <time>2019-06-08T10:57:40Z</time>
      </trkpt>
      <trkpt lat="41.130369" lon="29.587419">
        <ele>60.004</ele>
        <time>2019-06-08T10:57:53Z</time>
      </trkpt>
      <trkpt lat="41.128811" lon="29.588049">
        <ele>62.224</ele>
        <time>2019-06-08T10:58:32Z</time>
      </trkpt>
      <trkpt lat="41.127224" lon="29.587756">
        <ele>62.708</ele>
        <time>2019-06-08T10:59:09Z</time>
      </trkpt>
      <trkpt lat="41.126327" lon="29.587864">
        <ele>63.219</ele>
        <time>2019-06-08T10:59:29Z</time>
      </trkpt>
      <trkpt lat="41.124455" lon="29.588884">
        <ele>64.313</ele>
        <time>2019-06-08T11:00:20Z</time>
      </trkpt>
      <trkpt lat="41.123661" lon="29.590150">
        <ele>66.029</ele>
        <time>2019-06-08T11:00:49Z</time>
      </trkpt>
      <trkpt lat="41.123074" lon="29.591694">
        <ele>66.119</ele>
        <time>2019-06-08T11:01:19Z</time>
      </trkpt>
      <trkpt lat="41.122021" lon="29.592839">
        <ele>66.184</ele>
        <time>2019-06-08T11:01:48Z</time>
      </trkpt>
      <trkpt lat="41.120515" lon="29.593903">
        <ele>66.112</ele>
        <time>2019-06-08T11:03:02Z</time>
      </trkpt>
      <trkpt lat="41.120257" lon="29.594315">
        <ele>67.237</ele>
        <time>2019-06-08T11:03:12Z</time>
      </trkpt>
      <trkpt lat="41.120318" lon="29.594684">
        <ele>68.613</ele>
        <time>2019-06-08T11:03:53Z</time>
      </trkpt>
    </trkseg>
  </trk></gpx>